sensor_id;sensor_type;location;lat;lon;timestamp;temperature;humidity
21271;DHT22;10795;50.796;3.860;2023-04-25T06:11:48;8.70;99.90
21271;DHT22;10795;50.796;3.860;2023-04-25T06:14:27;8.60;99.90
21271;DHT22;10795;50.796;3.860;2023-04-25T06:17:08;8.70;99.90
21271;DHT22;10795;50.796;3.860;2023-04-25T06:19:42;8.60;99.90
21271;DHT22;10795;50.796;3.860;2023-04-25T06:22:15;8.70;99.90
21271;DHT22;10795;50.796;3.860;2023-04-25T06:24:58;8.70;99.90
21271;DHT22;10795;50.796;3.860;2023-04-25T06:27:33;8.70;99.90
21271;DHT22;10795;50.796;3.860;2023-04-25T06:30:01;8.80;99.90
21271;DHT22;10795;50.796;3.860;2023-04-25T06:35:42;8.80;99.90
21271;DHT22;10795;50.796;3.860;2023-04-25T06:38:48;8.90;99.90
21271;DHT22;10795;50.796;3.860;2023-04-25T06:41:51;8.70;99.90
21271;DHT22;10795;50.796;3.860;2023-04-25T06:44:50;8.80;99.90
21271;DHT22;10795;50.796;3.860;2023-04-25T06:47:39;9.30;99.90
21271;DHT22;10795;50.796;3.860;2023-04-25T06:53:38;9.50;99.90
21271;DHT22;10795;50.796;3.860;2023-04-25T06:56:14;9.30;99.90
21271;DHT22;10795;50.796;3.860;2023-04-25T06:59:13;9.30;99.90
21271;DHT22;10795;50.796;3.860;2023-04-25T07:01:58;9.30;99.90
21271;DHT22;10795;50.796;3.860;2023-04-25T07:04:39;9.40;99.90
21271;DHT22;10795;50.796;3.860;2023-04-25T07:07:44;9.30;99.90
21271;DHT22;10795;50.796;3.860;2023-04-25T07:10:28;9.20;99.90
21271;DHT22;10795;50.796;3.860;2023-04-25T07:13:10;9.30;99.90
21271;DHT22;10795;50.796;3.860;2023-04-25T07:19:00;9.40;99.90
21271;DHT22;10795;50.796;3.860;2023-04-25T07:21:40;9.30;99.90
21271;DHT22;10795;50.796;3.860;2023-04-25T07:24:39;9.30;99.90
21271;DHT22;10795;50.796;3.860;2023-04-25T07:27:31;9.20;99.90
21271;DHT22;10795;50.796;3.860;2023-04-25T07:30:07;9.30;99.90
21271;DHT22;10795;50.796;3.860;2023-04-25T07:33:06;9.40;99.90
21271;DHT22;10795;50.796;3.860;2023-04-25T07:35:50;9.60;99.90
21271;DHT22;10795;50.796;3.860;2023-04-25T07:38:41;10.20;99.90
21271;DHT22;10795;50.796;3.860;2023-04-25T07:41:26;9.80;99.90
21271;DHT22;10795;50.796;3.860;2023-04-25T07:44:24;10.00;99.90
21271;DHT22;10795;50.796;3.860;2023-04-25T07:47:30;10.00;99.90
21271;DHT22;10795;50.796;3.860;2023-04-25T07:50:15;9.60;99.90
21271;DHT22;10795;50.796;3.860;2023-04-25T07:56:09;10.10;99.90
21271;DHT22;10795;50.796;3.860;2023-04-25T08:02:23;10.40;99.90
21271;DHT22;10795;50.796;3.860;2023-04-25T08:05:04;10.90;99.90
21271;DHT22;10795;50.796;3.860;2023-04-25T10:46:35;15.50;99.90
21271;DHT22;10795;50.796;3.860;2023-04-25T10:49:28;15.10;99.90
21271;DHT22;10795;50.796;3.860;2023-04-25T10:52:18;14.50;99.90
21271;DHT22;10795;50.796;3.860;2023-04-25T10:57:31;15.00;99.90
21271;DHT22;10795;50.796;3.860;2023-04-25T11:00:16;15.30;99.90
21271;DHT22;10795;50.796;3.860;2023-04-25T11:02:52;15.90;99.90
21271;DHT22;10795;50.796;3.860;2023-04-25T11:07:59;15.70;99.90
21271;DHT22;10795;50.796;3.860;2023-04-25T11:10:31;15.90;99.90
21271;DHT22;10795;50.796;3.860;2023-04-25T11:13:07;15.80;99.90
21271;DHT22;10795;50.796;3.860;2023-04-25T11:15:35;15.80;99.90
21271;DHT22;10795;50.796;3.860;2023-04-25T11:18:01;15.50;99.90
21271;DHT22;10795;50.796;3.860;2023-04-25T11:20:27;15.20;99.90
21271;DHT22;10795;50.796;3.860;2023-04-25T11:22:57;15.40;99.90
21271;DHT22;10795;50.796;3.860;2023-04-25T11:25:26;15.60;99.90
21271;DHT22;10795;50.796;3.860;2023-04-25T11:27:56;14.80;99.90
21271;DHT22;10795;50.796;3.860;2023-04-25T11:30:23;14.80;99.90
21271;DHT22;10795;50.796;3.860;2023-04-25T11:32:49;14.70;99.90
21271;DHT22;10795;50.796;3.860;2023-04-25T11:35:17;15.00;99.90
21271;DHT22;10795;50.796;3.860;2023-04-25T11:38:03;15.60;99.90
21271;DHT22;10795;50.796;3.860;2023-04-25T11:40:38;15.90;99.90
21271;DHT22;10795;50.796;3.860;2023-04-25T11:43:06;15.00;99.90
21271;DHT22;10795;50.796;3.860;2023-04-25T11:45:32;14.60;99.90
21271;DHT22;10795;50.796;3.860;2023-04-25T11:47:58;14.30;99.90
21271;DHT22;10795;50.796;3.860;2023-04-25T17:21:21;12.20;99.90
21271;DHT22;10795;50.796;3.860;2023-04-25T17:27:35;12.70;99.90
21271;DHT22;10795;50.796;3.860;2023-04-25T17:30:05;12.70;99.90
21271;DHT22;10795;50.796;3.860;2023-04-25T17:32:31;12.60;99.90
21271;DHT22;10795;50.796;3.860;2023-04-25T17:35:31;12.10;99.90
21271;DHT22;10795;50.796;3.860;2023-04-25T17:38:21;11.80;99.90
21271;DHT22;10795;50.796;3.860;2023-04-25T17:40:51;11.80;99.90
21271;DHT22;10795;50.796;3.860;2023-04-25T17:43:37;11.80;99.90
21271;DHT22;10795;50.796;3.860;2023-04-25T17:46:31;11.50;99.90
21271;DHT22;10795;50.796;3.860;2023-04-25T17:49:10;11.80;99.90
21271;DHT22;10795;50.796;3.860;2023-04-25T17:51:38;11.50;99.90
21271;DHT22;10795;50.796;3.860;2023-04-25T17:57:52;11.30;99.90
21271;DHT22;10795;50.796;3.860;2023-04-25T18:00:33;11.10;99.90
21271;DHT22;10795;50.796;3.860;2023-04-25T18:06:18;11.20;99.90
21271;DHT22;10795;50.796;3.860;2023-04-25T18:09:06;11.10;99.90
21271;DHT22;10795;50.796;3.860;2023-04-25T18:11:48;10.60;99.90
21271;DHT22;10795;50.796;3.860;2023-04-25T18:17:54;11.10;99.90
21271;DHT22;10795;50.796;3.860;2023-04-25T18:21:00;10.50;99.90
21271;DHT22;10795;50.796;3.860;2023-04-25T18:24:05;11.60;99.90
21271;DHT22;10795;50.796;3.860;2023-04-25T18:27:08;12.20;99.90
21271;DHT22;10795;50.796;3.860;2023-04-25T18:33:38;12.00;99.90
21271;DHT22;10795;50.796;3.860;2023-04-25T18:36:33;12.00;99.90
21271;DHT22;10795;50.796;3.860;2023-04-25T18:39:29;11.40;99.90
21271;DHT22;10795;50.796;3.860;2023-04-25T18:42:39;10.90;99.90
21271;DHT22;10795;50.796;3.860;2023-04-25T18:45:23;10.80;99.90
21271;DHT22;10795;50.796;3.860;2023-04-25T18:47:49;10.70;99.90
21271;DHT22;10795;50.796;3.860;2023-04-25T18:50:15;10.20;99.90
21271;DHT22;10795;50.796;3.860;2023-04-25T18:52:44;9.90;99.90
21271;DHT22;10795;50.796;3.860;2023-04-25T18:55:10;9.50;99.90
21271;DHT22;10795;50.796;3.860;2023-04-25T18:57:36;9.60;99.90
21271;DHT22;10795;50.796;3.860;2023-04-25T19:00:02;9.40;99.90
21271;DHT22;10795;50.796;3.860;2023-04-25T19:02:31;8.90;99.90
21271;DHT22;10795;50.796;3.860;2023-04-25T19:04:56;9.30;99.90
21271;DHT22;10795;50.796;3.860;2023-04-25T19:07:22;9.30;99.90
21271;DHT22;10795;50.796;3.860;2023-04-25T19:09:49;9.20;99.90
21271;DHT22;10795;50.796;3.860;2023-04-25T19:12:15;8.50;99.90
21271;DHT22;10795;50.796;3.860;2023-04-25T19:14:41;8.50;99.90
21271;DHT22;10795;50.796;3.860;2023-04-25T19:17:07;8.40;99.90
21271;DHT22;10795;50.796;3.860;2023-04-25T19:19:33;8.20;99.90
21271;DHT22;10795;50.796;3.860;2023-04-25T19:21:58;8.10;99.90
21271;DHT22;10795;50.796;3.860;2023-04-25T19:24:25;8.40;99.90
21271;DHT22;10795;50.796;3.860;2023-04-25T19:26:51;8.70;99.90
21271;DHT22;10795;50.796;3.860;2023-04-25T19:29:17;8.40;99.90
21271;DHT22;10795;50.796;3.860;2023-04-25T19:31:43;8.50;99.90
21271;DHT22;10795;50.796;3.860;2023-04-25T19:34:12;8.60;99.90
21271;DHT22;10795;50.796;3.860;2023-04-25T19:36:39;8.40;99.90
21271;DHT22;10795;50.796;3.860;2023-04-25T19:39:05;8.20;99.90
21271;DHT22;10795;50.796;3.860;2023-04-25T19:41:32;8.10;99.90
21271;DHT22;10795;50.796;3.860;2023-04-25T19:43:58;7.80;99.90
21271;DHT22;10795;50.796;3.860;2023-04-25T19:46:29;8.30;99.90
21271;DHT22;10795;50.796;3.860;2023-04-25T19:48:56;8.10;99.90
21271;DHT22;10795;50.796;3.860;2023-04-25T19:51:22;8.00;99.90
21271;DHT22;10795;50.796;3.860;2023-04-25T19:53:48;7.80;99.90
21271;DHT22;10795;50.796;3.860;2023-04-25T19:56:13;7.70;99.90
21271;DHT22;10795;50.796;3.860;2023-04-25T19:58:39;7.50;99.90
21271;DHT22;10795;50.796;3.860;2023-04-25T20:01:05;7.30;99.90
21271;DHT22;10795;50.796;3.860;2023-04-25T20:03:32;7.10;99.90
21271;DHT22;10795;50.796;3.860;2023-04-25T20:05:57;7.10;99.90
21271;DHT22;10795;50.796;3.860;2023-04-25T20:08:24;6.90;99.90
21271;DHT22;10795;50.796;3.860;2023-04-25T20:10:50;6.80;99.90
21271;DHT22;10795;50.796;3.860;2023-04-25T20:13:16;6.90;99.90
21271;DHT22;10795;50.796;3.860;2023-04-25T20:15:42;6.90;99.90
21271;DHT22;10795;50.796;3.860;2023-04-25T20:18:07;7.00;99.90
21271;DHT22;10795;50.796;3.860;2023-04-25T20:20:33;7.10;99.90
21271;DHT22;10795;50.796;3.860;2023-04-25T20:23:01;6.90;99.90
21271;DHT22;10795;50.796;3.860;2023-04-25T20:25:26;6.80;99.90
21271;DHT22;10795;50.796;3.860;2023-04-25T20:27:52;6.80;99.90
21271;DHT22;10795;50.796;3.860;2023-04-25T20:30:39;6.80;99.90
21271;DHT22;10795;50.796;3.860;2023-04-25T20:34:08;6.90;99.90
21271;DHT22;10795;50.796;3.860;2023-04-25T20:44:35;6.80;99.90
21271;DHT22;10795;50.796;3.860;2023-04-25T20:47:39;6.70;99.90
21271;DHT22;10795;50.796;3.860;2023-04-25T20:50:06;6.70;99.90
21271;DHT22;10795;50.796;3.860;2023-04-25T20:52:32;6.50;99.90
21271;DHT22;10795;50.796;3.860;2023-04-25T20:54:57;6.50;99.90
21271;DHT22;10795;50.796;3.860;2023-04-25T20:57:23;6.40;99.90
21271;DHT22;10795;50.796;3.860;2023-04-25T20:59:52;6.50;99.90
21271;DHT22;10795;50.796;3.860;2023-04-25T21:02:18;6.60;99.90
21271;DHT22;10795;50.796;3.860;2023-04-25T21:04:44;6.40;99.90
21271;DHT22;10795;50.796;3.860;2023-04-25T21:07:11;6.50;99.90
21271;DHT22;10795;50.796;3.860;2023-04-25T21:09:40;6.30;99.90
21271;DHT22;10795;50.796;3.860;2023-04-25T21:12:07;6.40;99.90
21271;DHT22;10795;50.796;3.860;2023-04-25T21:14:33;6.30;99.90
21271;DHT22;10795;50.796;3.860;2023-04-25T21:17:01;6.40;99.90
21271;DHT22;10795;50.796;3.860;2023-04-25T21:19:28;6.40;99.90
21271;DHT22;10795;50.796;3.860;2023-04-25T21:21:53;6.10;99.90
21271;DHT22;10795;50.796;3.860;2023-04-25T21:24:19;5.80;99.90
21271;DHT22;10795;50.796;3.860;2023-04-25T21:26:48;5.40;99.90
21271;DHT22;10795;50.796;3.860;2023-04-25T21:29:16;5.50;99.90
21271;DHT22;10795;50.796;3.860;2023-04-25T21:31:42;5.50;99.90
21271;DHT22;10795;50.796;3.860;2023-04-25T21:34:08;5.70;99.90
21271;DHT22;10795;50.796;3.860;2023-04-25T21:36:34;5.80;99.90
21271;DHT22;10795;50.796;3.860;2023-04-25T21:39:00;5.80;99.90
21271;DHT22;10795;50.796;3.860;2023-04-25T21:41:26;5.90;99.90
21271;DHT22;10795;50.796;3.860;2023-04-25T21:43:52;6.00;99.90
21271;DHT22;10795;50.796;3.860;2023-04-25T21:46:17;6.20;99.90
21271;DHT22;10795;50.796;3.860;2023-04-25T21:48:44;6.00;99.90
21271;DHT22;10795;50.796;3.860;2023-04-25T21:51:13;6.30;99.90
21271;DHT22;10795;50.796;3.860;2023-04-25T21:53:41;6.10;99.90
21271;DHT22;10795;50.796;3.860;2023-04-25T21:56:06;5.90;99.90
21271;DHT22;10795;50.796;3.860;2023-04-25T21:58:32;5.70;99.90
21271;DHT22;10795;50.796;3.860;2023-04-25T22:00:58;5.60;99.90
21271;DHT22;10795;50.796;3.860;2023-04-25T22:03:24;5.70;99.90
21271;DHT22;10795;50.796;3.860;2023-04-25T22:05:50;5.90;99.90
21271;DHT22;10795;50.796;3.860;2023-04-25T22:08:16;5.60;99.90
21271;DHT22;10795;50.796;3.860;2023-04-25T22:10:42;5.60;99.90
21271;DHT22;10795;50.796;3.860;2023-04-25T22:13:08;5.50;99.90
21271;DHT22;10795;50.796;3.860;2023-04-25T22:15:38;5.40;99.90
21271;DHT22;10795;50.796;3.860;2023-04-25T22:18:04;5.30;99.90
21271;DHT22;10795;50.796;3.860;2023-04-25T22:20:30;5.30;99.90
21271;DHT22;10795;50.796;3.860;2023-04-25T22:22:56;5.20;99.90
21271;DHT22;10795;50.796;3.860;2023-04-25T22:25:22;5.10;99.90
21271;DHT22;10795;50.796;3.860;2023-04-25T22:27:48;5.20;99.90
21271;DHT22;10795;50.796;3.860;2023-04-25T22:30:14;5.20;99.90
21271;DHT22;10795;50.796;3.860;2023-04-25T22:32:40;5.40;99.90
21271;DHT22;10795;50.796;3.860;2023-04-25T22:35:08;5.50;99.90
21271;DHT22;10795;50.796;3.860;2023-04-25T22:37:35;5.50;99.90
21271;DHT22;10795;50.796;3.860;2023-04-25T22:40:01;5.30;99.90
21271;DHT22;10795;50.796;3.860;2023-04-25T22:42:35;5.30;99.90
21271;DHT22;10795;50.796;3.860;2023-04-25T22:45:03;5.30;99.90
21271;DHT22;10795;50.796;3.860;2023-04-25T22:47:30;5.50;99.90
21271;DHT22;10795;50.796;3.860;2023-04-25T22:49:58;5.60;99.90
21271;DHT22;10795;50.796;3.860;2023-04-25T22:52:27;5.30;99.90
21271;DHT22;10795;50.796;3.860;2023-04-25T22:54:56;5.20;99.90
21271;DHT22;10795;50.796;3.860;2023-04-25T22:57:21;5.30;99.90
21271;DHT22;10795;50.796;3.860;2023-04-25T22:59:48;5.30;99.90
21271;DHT22;10795;50.796;3.860;2023-04-25T23:02:14;5.30;99.90
21271;DHT22;10795;50.796;3.860;2023-04-25T23:04:42;5.20;99.90
21271;DHT22;10795;50.796;3.860;2023-04-25T23:07:08;5.30;99.90
21271;DHT22;10795;50.796;3.860;2023-04-25T23:09:33;5.20;99.90
21271;DHT22;10795;50.796;3.860;2023-04-25T23:11:59;5.30;99.90
21271;DHT22;10795;50.796;3.860;2023-04-25T23:14:29;5.40;99.90
21271;DHT22;10795;50.796;3.860;2023-04-25T23:16:59;5.40;99.90
21271;DHT22;10795;50.796;3.860;2023-04-25T23:19:25;5.20;99.90
21271;DHT22;10795;50.796;3.860;2023-04-25T23:21:51;5.20;99.90
21271;DHT22;10795;50.796;3.860;2023-04-25T23:24:26;5.10;99.90
21271;DHT22;10795;50.796;3.860;2023-04-25T23:26:52;5.00;99.90
21271;DHT22;10795;50.796;3.860;2023-04-25T23:29:17;5.10;99.90
21271;DHT22;10795;50.796;3.860;2023-04-25T23:31:43;4.80;99.90
21271;DHT22;10795;50.796;3.860;2023-04-25T23:34:09;4.80;99.90
21271;DHT22;10795;50.796;3.860;2023-04-25T23:36:37;4.90;99.90
21271;DHT22;10795;50.796;3.860;2023-04-25T23:39:03;4.90;99.90
21271;DHT22;10795;50.796;3.860;2023-04-25T23:41:30;4.80;99.90
21271;DHT22;10795;50.796;3.860;2023-04-25T23:43:58;4.70;99.90
21271;DHT22;10795;50.796;3.860;2023-04-25T23:46:26;4.80;99.90
21271;DHT22;10795;50.796;3.860;2023-04-25T23:48:53;4.70;99.90
21271;DHT22;10795;50.796;3.860;2023-04-25T23:51:19;4.60;99.90
21271;DHT22;10795;50.796;3.860;2023-04-25T23:53:45;4.60;99.90
21271;DHT22;10795;50.796;3.860;2023-04-25T23:56:10;4.90;99.90
21271;DHT22;10795;50.796;3.860;2023-04-25T23:58:36;5.40;99.90
